createdAt,value
2018-12-18T00:00:04.539Z,4.49
2018-12-18T00:00:45.087Z,4.53
2018-12-18T00:01:25.720Z,4.53
2018-12-18T00:02:06.290Z,4.53
2018-12-18T00:02:46.851Z,4.56
2018-12-18T00:03:27.402Z,4.6
2018-12-18T00:04:07.952Z,4.48
2018-12-18T00:04:48.530Z,4.5
2018-12-18T00:05:29.079Z,4.53
2018-12-18T00:06:09.661Z,4.52
2018-12-18T00:06:50.217Z,4.53
2018-12-18T00:07:30.780Z,4.53
2018-12-18T00:08:11.336Z,4.53
2018-12-18T00:08:51.895Z,4.6
2018-12-18T00:09:32.451Z,4.5
2018-12-18T00:10:13.009Z,4.58
2018-12-18T00:10:53.573Z,4.59
2018-12-18T00:11:34.124Z,4.6
2018-12-18T00:12:14.706Z,4.6
2018-12-18T00:12:55.270Z,4.63
2018-12-18T00:13:35.845Z,4.59
2018-12-18T00:14:16.408Z,4.6
2018-12-18T00:14:56.954Z,4.58
2018-12-18T00:15:37.524Z,4.68
2018-12-18T00:16:18.059Z,4.67
2018-12-18T00:16:58.613Z,4.56
2018-12-18T00:17:39.177Z,4.66
2018-12-18T00:18:19.796Z,4.6
2018-12-18T00:19:00.365Z,4.62
2018-12-18T00:19:40.916Z,4.63
2018-12-18T00:20:21.470Z,4.58
2018-12-18T00:21:02.056Z,4.62
2018-12-18T00:21:42.620Z,4.63
2018-12-18T00:22:23.183Z,4.62
2018-12-18T00:23:03.742Z,4.62
2018-12-18T00:23:44.362Z,4.68
2018-12-18T00:24:24.909Z,4.68
2018-12-18T00:25:05.478Z,4.66
2018-12-18T00:25:48.028Z,4.68
2018-12-18T00:26:28.586Z,4.59
2018-12-18T00:27:09.125Z,4.67
2018-12-18T00:27:49.681Z,4.68
2018-12-18T00:28:30.234Z,4.73
2018-12-18T00:29:10.825Z,4.75
2018-12-18T00:29:51.372Z,4.71
2018-12-18T00:30:31.930Z,4.71
2018-12-18T00:31:12.506Z,4.73
2018-12-18T00:31:53.077Z,4.7
2018-12-18T00:32:33.643Z,4.78
2018-12-18T00:33:14.206Z,4.73
2018-12-18T00:33:54.782Z,4.73
2018-12-18T00:34:35.361Z,4.74
2018-12-18T00:35:15.912Z,4.73
2018-12-18T00:35:56.462Z,4.74
2018-12-18T00:36:37.128Z,4.71
2018-12-18T00:37:17.689Z,4.77
2018-12-18T00:37:58.240Z,4.77
2018-12-18T00:38:38.800Z,4.7
2018-12-18T00:39:19.359Z,4.77
2018-12-18T00:39:59.939Z,4.73
2018-12-18T00:40:40.475Z,4.73
2018-12-18T00:41:21.051Z,4.73
2018-12-18T00:42:01.605Z,4.75
2018-12-18T00:42:42.165Z,4.75
2018-12-18T00:43:22.727Z,4.74
2018-12-18T00:44:03.278Z,4.8
2018-12-18T00:44:43.839Z,4.74
2018-12-18T00:45:24.400Z,4.77
2018-12-18T00:46:04.954Z,4.8
2018-12-18T00:46:45.528Z,4.84
2018-12-18T00:47:26.083Z,4.74
2018-12-18T00:48:06.619Z,4.78
2018-12-18T00:48:47.174Z,4.75
2018-12-18T00:49:27.739Z,4.82
2018-12-18T00:50:08.288Z,4.78
2018-12-18T00:50:48.860Z,4.75
2018-12-18T00:51:29.408Z,4.75
2018-12-18T00:52:09.970Z,4.77
2018-12-18T00:52:50.530Z,4.84
2018-12-18T00:53:31.087Z,4.84
2018-12-18T00:54:11.663Z,4.78
2018-12-18T00:54:52.245Z,4.8
2018-12-18T00:55:32.795Z,4.8
2018-12-18T00:56:13.347Z,4.86
2018-12-18T00:56:53.924Z,4.75
2018-12-18T00:57:34.482Z,4.84
2018-12-18T00:58:15.042Z,4.77
2018-12-18T00:58:55.608Z,4.77
2018-12-18T00:59:36.173Z,4.74
2018-12-18T01:00:16.730Z,4.75
2018-12-18T01:00:57.285Z,4.8
2018-12-18T01:01:37.828Z,4.71
2018-12-18T01:02:18.381Z,4.73
2018-12-18T01:02:58.933Z,4.92
2018-12-18T01:03:39.495Z,4.75
2018-12-18T01:04:20.058Z,4.89
2018-12-18T01:05:00.616Z,4.87
2018-12-18T01:05:41.177Z,4.92
2018-12-18T01:06:21.759Z,4.89
2018-12-18T01:07:02.348Z,4.92
2018-12-18T01:07:42.901Z,4.78
2018-12-18T01:08:23.467Z,4.9
2018-12-18T01:09:04.013Z,4.75
2018-12-18T01:09:44.572Z,4.78
2018-12-18T01:10:25.135Z,4.82
2018-12-18T01:11:05.700Z,4.94
2018-12-18T01:11:46.265Z,4.9
2018-12-18T01:12:26.828Z,4.89
2018-12-18T01:13:07.397Z,4.78
2018-12-18T01:13:47.958Z,4.8
2018-12-18T01:14:28.516Z,4.73
2018-12-18T01:15:09.066Z,4.92
2018-12-18T01:15:49.614Z,4.73
2018-12-18T01:16:30.167Z,4.8
2018-12-18T01:17:10.750Z,4.78
2018-12-18T01:17:51.312Z,4.87
2018-12-18T01:18:31.879Z,4.86
2018-12-18T01:19:12.441Z,4.84
2018-12-18T01:19:52.999Z,4.92
2018-12-18T01:20:33.547Z,4.89
2018-12-18T01:21:14.121Z,4.9
2018-12-18T01:21:54.729Z,4.87
2018-12-18T01:22:35.272Z,4.87
2018-12-18T01:23:15.841Z,4.96
2018-12-18T01:23:56.402Z,4.94
2018-12-18T01:24:36.954Z,4.99
2018-12-18T01:25:17.517Z,4.94
2018-12-18T01:25:58.065Z,4.93
2018-12-18T01:26:38.659Z,4.92
2018-12-18T01:27:19.206Z,4.94
2018-12-18T01:27:59.766Z,4.99
2018-12-18T01:28:40.336Z,4.96
2018-12-18T01:29:20.906Z,4.92
2018-12-18T01:30:01.461Z,4.92
2018-12-18T01:30:42.013Z,4.94
2018-12-18T01:31:22.563Z,4.94
2018-12-18T01:32:03.132Z,4.97
2018-12-18T01:32:43.673Z,4.94
2018-12-18T01:33:24.242Z,4.94
2018-12-18T01:34:04.807Z,4.89
2018-12-18T01:34:45.475Z,4.97
2018-12-18T01:35:26.361Z,5.04
2018-12-18T01:36:06.925Z,5.05
2018-12-18T01:36:47.497Z,4.94
2018-12-18T01:37:28.038Z,4.92
2018-12-18T01:38:08.600Z,5.04
2018-12-18T01:38:49.172Z,5.04
2018-12-18T01:39:29.740Z,4.94
2018-12-18T01:40:10.308Z,5.07
2018-12-18T01:40:50.873Z,5.05
2018-12-18T01:41:31.420Z,5
2018-12-18T01:42:11.995Z,4.97
2018-12-18T01:42:52.556Z,4.99
2018-12-18T01:43:33.096Z,5
2018-12-18T01:44:13.643Z,5.05
2018-12-18T01:44:54.202Z,5.04
2018-12-18T01:45:34.776Z,5.05
2018-12-18T01:46:15.337Z,5.02
2018-12-18T01:46:55.894Z,5.04
2018-12-18T01:47:36.470Z,4.94
2018-12-18T01:48:17.058Z,4.99
2018-12-18T01:48:57.614Z,5.07
2018-12-18T01:49:38.168Z,5.02
2018-12-18T01:50:18.730Z,4.99
2018-12-18T01:50:59.333Z,4.99
2018-12-18T01:51:39.887Z,4.96
2018-12-18T01:52:20.452Z,5
2018-12-18T01:53:01.020Z,5.02
2018-12-18T01:53:41.621Z,4.99
2018-12-18T01:54:22.186Z,4.99
2018-12-18T01:55:02.778Z,5.1
2018-12-18T01:55:43.332Z,5.08
2018-12-18T01:56:23.881Z,5.11
2018-12-18T01:57:04.434Z,5.12
2018-12-18T01:57:45.022Z,5
2018-12-18T01:58:25.592Z,5.11
2018-12-18T01:59:06.144Z,5.08
2018-12-18T01:59:46.808Z,5.08
2018-12-18T02:00:27.410Z,5.08
2018-12-18T02:01:07.996Z,5.08
2018-12-18T02:01:48.581Z,5.08
2018-12-18T02:02:29.155Z,5.04
2018-12-18T02:03:09.708Z,5.1
2018-12-18T02:03:50.285Z,5.11
2018-12-18T02:04:30.865Z,5.08
2018-12-18T02:05:11.422Z,5.05
2018-12-18T02:05:51.969Z,5.1
2018-12-18T02:06:32.541Z,5.14
2018-12-18T02:07:13.126Z,5.05
2018-12-18T02:07:53.720Z,5.14
2018-12-18T02:08:34.256Z,5.18
2018-12-18T02:09:14.813Z,5.17
2018-12-18T02:09:55.398Z,5.17
2018-12-18T02:10:35.957Z,5.12
2018-12-18T02:11:16.510Z,5.17
2018-12-18T02:11:57.080Z,5.2
2018-12-18T02:12:37.676Z,5.14
2018-12-18T02:13:18.215Z,5.17
2018-12-18T02:13:58.799Z,5.15
2018-12-18T02:14:39.357Z,5.2
2018-12-18T02:15:19.922Z,5.17
2018-12-18T02:16:00.469Z,5.15
2018-12-18T02:16:41.027Z,5.18
2018-12-18T02:17:21.588Z,5.15
2018-12-18T02:18:02.150Z,5.15
2018-12-18T02:18:42.716Z,5.18
2018-12-18T02:19:23.302Z,5.17
2018-12-18T02:20:03.869Z,5.2
2018-12-18T02:20:44.447Z,5.17
2018-12-18T02:21:25.022Z,5.18
2018-12-18T02:22:05.709Z,5.18
2018-12-18T02:22:46.249Z,5.14
2018-12-18T02:23:26.840Z,5.14
2018-12-18T02:24:07.483Z,5.2
2018-12-18T02:24:48.085Z,5.12
2018-12-18T02:25:28.666Z,5.18
2018-12-18T02:26:09.230Z,5.08
2018-12-18T02:26:49.816Z,5.08
2018-12-18T02:27:30.408Z,5.07
2018-12-18T02:28:10.950Z,5.04
2018-12-18T02:28:51.525Z,5.07
2018-12-18T02:29:32.080Z,5.12
2018-12-18T02:30:12.659Z,5.08
2018-12-18T02:30:53.246Z,5.07
2018-12-18T02:31:33.818Z,5.12
2018-12-18T02:32:14.410Z,5.07
2018-12-18T02:32:54.986Z,5.1
2018-12-18T02:33:35.553Z,5.15
2018-12-18T02:34:16.281Z,5.17
2018-12-18T02:34:56.840Z,5.18
2018-12-18T02:35:37.507Z,5.14
2018-12-18T02:36:17.981Z,5.15
2018-12-18T02:36:58.559Z,5.12
2018-12-18T02:37:39.123Z,5.23
2018-12-18T02:38:19.700Z,5.21
2018-12-18T02:39:00.269Z,5.2
2018-12-18T02:39:40.830Z,5.23
2018-12-18T02:40:21.403Z,5.25
2018-12-18T02:41:01.961Z,5.25
2018-12-18T02:41:42.518Z,5.26
2018-12-18T02:42:23.103Z,5.21
2018-12-18T02:43:03.630Z,5.21
2018-12-18T02:43:44.182Z,5.21
2018-12-18T02:44:24.728Z,5.2
2018-12-18T02:45:05.356Z,5.26
2018-12-18T02:45:45.916Z,5.15
2018-12-18T02:46:26.497Z,5.23
2018-12-18T02:47:07.030Z,5.23
2018-12-18T02:47:47.589Z,5.17
2018-12-18T02:48:28.142Z,5.25
2018-12-18T02:49:08.704Z,5.2
2018-12-18T02:49:49.258Z,5.17
2018-12-18T02:50:29.826Z,5.21
2018-12-18T02:51:10.398Z,5.25
2018-12-18T02:51:50.976Z,5.2
2018-12-18T02:52:31.540Z,5.28
2018-12-18T02:53:12.095Z,5.23
2018-12-18T02:53:52.644Z,5.23
2018-12-18T02:54:33.201Z,5.23
2018-12-18T02:55:13.754Z,5.15
2018-12-18T02:55:54.296Z,5.17
2018-12-18T02:56:34.877Z,5.23
2018-12-18T02:57:15.427Z,5.21
2018-12-18T02:57:55.997Z,5.15
2018-12-18T02:58:36.552Z,5.2
2018-12-18T02:59:17.125Z,5.14
2018-12-18T02:59:57.668Z,5.28
2018-12-18T03:00:38.232Z,5.21
2018-12-18T03:01:18.787Z,5.18
2018-12-18T03:01:59.354Z,5.25
2018-12-18T03:02:39.906Z,5.25
2018-12-18T03:03:20.497Z,5.25
2018-12-18T03:04:01.013Z,5.15
2018-12-18T03:04:41.565Z,5.26
2018-12-18T03:05:22.110Z,5.26
2018-12-18T03:06:02.673Z,5.25
2018-12-18T03:06:43.232Z,5.29
2018-12-18T03:07:23.814Z,5.26
2018-12-18T03:08:04.367Z,5.23
2018-12-18T03:08:44.920Z,5.28
2018-12-18T03:09:25.480Z,5.23
2018-12-18T03:10:06.030Z,5.23
2018-12-18T03:10:46.603Z,5.25
2018-12-18T03:11:27.171Z,5.26
2018-12-18T03:12:07.719Z,5.18
2018-12-18T03:12:48.296Z,5.26
2018-12-18T03:13:28.842Z,5.26
2018-12-18T03:14:09.388Z,5.3
2018-12-18T03:14:49.940Z,5.28
2018-12-18T03:15:30.556Z,5.2
2018-12-18T03:16:11.113Z,5.26
2018-12-18T03:16:51.674Z,5.28
2018-12-18T03:17:32.208Z,5.23
2018-12-18T03:18:12.803Z,5.18
2018-12-18T03:18:53.358Z,5.25
2018-12-18T03:19:33.920Z,5.21
2018-12-18T03:20:14.482Z,5.28
2018-12-18T03:20:55.076Z,5.18
2018-12-18T03:21:35.629Z,5.18
2018-12-18T03:22:16.185Z,5.25
2018-12-18T03:22:56.762Z,5.23
2018-12-18T03:23:37.321Z,5.18
2018-12-18T03:24:17.897Z,5.23
2018-12-18T03:24:58.513Z,5.25
2018-12-18T03:25:39.040Z,5.2
2018-12-18T03:26:19.591Z,5.23
2018-12-18T03:27:00.151Z,5.26
2018-12-18T03:27:40.711Z,5.26
2018-12-18T03:28:21.271Z,5.26
2018-12-18T03:29:01.807Z,5.17
2018-12-18T03:29:43.151Z,5.3
2018-12-18T03:30:22.962Z,5.25
2018-12-18T03:31:03.565Z,5.26
2018-12-18T03:31:44.109Z,5.23
2018-12-18T03:32:24.662Z,5.26
2018-12-18T03:33:05.226Z,5.21
2018-12-18T03:33:45.786Z,5.26
2018-12-18T03:34:28.346Z,5.29
2018-12-18T03:35:06.983Z,5.23
2018-12-18T03:35:47.740Z,5.21
2018-12-18T03:36:28.308Z,5.26
2018-12-18T03:37:08.876Z,5.23
2018-12-18T03:37:49.429Z,5.21
2018-12-18T03:38:30.011Z,5.23
2018-12-18T03:39:10.585Z,5.29
2018-12-18T03:39:51.144Z,5.28
2018-12-18T03:40:31.722Z,5.21
2018-12-18T03:41:12.242Z,5.26
2018-12-18T03:41:52.811Z,5.29
2018-12-18T03:42:33.394Z,5.28
2018-12-18T03:43:13.967Z,5.28
2018-12-18T03:43:54.519Z,5.29
2018-12-18T03:44:35.086Z,5.3
2018-12-18T03:45:15.641Z,5.3
2018-12-18T03:45:56.193Z,5.35
2018-12-18T03:46:36.737Z,5.32
2018-12-18T03:47:17.317Z,5.3
2018-12-18T03:47:57.902Z,5.32
2018-12-18T03:48:38.471Z,5.3
2018-12-18T03:49:19.049Z,5.32
2018-12-18T03:49:59.600Z,5.32
2018-12-18T03:50:40.140Z,5.38
2018-12-18T03:51:20.702Z,5.3
2018-12-18T03:52:01.242Z,5.26
2018-12-18T03:52:41.803Z,5.23
2018-12-18T03:53:22.353Z,5.25
2018-12-18T03:54:02.912Z,5.25
2018-12-18T03:54:43.479Z,5.18
2018-12-18T03:55:24.082Z,5.26
2018-12-18T03:56:04.621Z,5.25
2018-12-18T03:56:45.187Z,5.21
2018-12-18T03:57:25.741Z,5.23
2018-12-18T03:58:06.290Z,5.21
2018-12-18T03:58:46.860Z,5.21
2018-12-18T03:59:27.406Z,5.2
2018-12-18T04:00:07.974Z,5.18
2018-12-18T04:00:48.527Z,5.2
2018-12-18T04:01:29.113Z,5.26
2018-12-18T04:02:09.700Z,5.21
2018-12-18T04:02:50.271Z,5.21
2018-12-18T04:03:30.818Z,5.28
2018-12-18T04:04:11.371Z,5.26
2018-12-18T04:04:51.948Z,5.29
2018-12-18T04:05:32.515Z,5.3
2018-12-18T04:06:13.106Z,5.28
2018-12-18T04:06:53.674Z,5.28
2018-12-18T04:07:34.227Z,5.3
2018-12-18T04:08:14.770Z,5.32
2018-12-18T04:08:55.321Z,5.29
2018-12-18T04:09:35.875Z,5.35
2018-12-18T04:10:16.425Z,5.25
2018-12-18T04:10:57.033Z,5.36
2018-12-18T04:11:37.597Z,5.29
2018-12-18T04:12:18.167Z,5.3
2018-12-18T04:12:58.728Z,5.3
2018-12-18T04:13:39.288Z,5.26
2018-12-18T04:14:19.887Z,5.26
2018-12-18T04:15:00.456Z,5.29
2018-12-18T04:15:41.022Z,5.3
2018-12-18T04:16:21.596Z,5.33
2018-12-18T04:17:02.169Z,5.35
2018-12-18T04:17:42.781Z,5.3
2018-12-18T04:18:23.339Z,5.3
2018-12-18T04:19:03.899Z,5.35
2018-12-18T04:19:44.530Z,5.36
2018-12-18T04:20:25.114Z,5.36
2018-12-18T04:21:05.685Z,5.38
2018-12-18T04:21:46.288Z,5.28
2018-12-18T04:22:26.837Z,5.38
2018-12-18T04:23:07.418Z,5.3
2018-12-18T04:23:47.940Z,5.33
2018-12-18T04:24:28.522Z,5.38
2018-12-18T04:25:09.093Z,5.36
2018-12-18T04:25:49.642Z,5.29
2018-12-18T04:26:30.269Z,5.3
2018-12-18T04:27:10.839Z,5.33
2018-12-18T04:27:51.467Z,5.35
2018-12-18T04:28:31.991Z,5.36
2018-12-18T04:29:12.559Z,5.29
2018-12-18T04:29:53.115Z,5.35
2018-12-18T04:30:33.669Z,5.33
2018-12-18T04:31:14.212Z,5.29
2018-12-18T04:31:54.805Z,5.32
2018-12-18T04:32:35.422Z,5.35
2018-12-18T04:33:15.964Z,5.32
2018-12-18T04:33:56.566Z,5.3
2018-12-18T04:34:42.811Z,5.29
2018-12-18T04:35:17.736Z,5.33
2018-12-18T04:35:58.284Z,5.38
2018-12-18T04:36:38.862Z,5.35
2018-12-18T04:37:19.430Z,5.35
2018-12-18T04:38:00.035Z,5.32
2018-12-18T04:38:40.574Z,5.35
2018-12-18T04:39:21.144Z,5.43
2018-12-18T04:40:01.701Z,5.41
2018-12-18T04:40:42.284Z,5.41
2018-12-18T04:41:22.871Z,5.39
2018-12-18T04:42:03.434Z,5.46
2018-12-18T04:42:43.974Z,5.36
2018-12-18T04:43:24.529Z,5.41
2018-12-18T04:44:05.099Z,5.39
2018-12-18T04:44:45.650Z,5.33
2018-12-18T04:45:26.231Z,5.38
2018-12-18T04:46:06.794Z,5.33
2018-12-18T04:46:47.362Z,5.33
2018-12-18T04:47:27.936Z,5.28
2018-12-18T04:48:08.477Z,5.3
2018-12-18T04:48:49.048Z,5.29
2018-12-18T04:49:29.613Z,5.3
2018-12-18T04:50:10.154Z,5.28
2018-12-18T04:50:50.713Z,5.32
2018-12-18T04:51:31.268Z,5.26
2018-12-18T04:52:11.844Z,5.25
2018-12-18T04:52:52.412Z,5.23
2018-12-18T04:53:32.976Z,5.29
2018-12-18T04:54:13.539Z,5.28
2018-12-18T04:54:54.097Z,5.28
2018-12-18T04:55:34.659Z,5.25
2018-12-18T04:56:15.224Z,5.25
2018-12-18T04:56:55.775Z,5.26
2018-12-18T04:57:36.380Z,5.26
2018-12-18T04:58:16.948Z,5.3
2018-12-18T04:58:57.524Z,5.29
2018-12-18T04:59:38.075Z,5.23
2018-12-18T05:00:18.629Z,5.26
2018-12-18T05:00:59.206Z,5.3
2018-12-18T05:01:39.784Z,5.25
2018-12-18T05:02:20.359Z,5.35
2018-12-18T05:03:00.920Z,5.26
2018-12-18T05:03:41.467Z,5.28
2018-12-18T05:04:22.003Z,5.32
2018-12-18T05:05:02.574Z,5.33
2018-12-18T05:05:43.126Z,5.3
2018-12-18T05:06:23.686Z,5.35
2018-12-18T05:07:04.255Z,5.3
2018-12-18T05:07:44.826Z,5.32
2018-12-18T05:08:25.381Z,5.26
2018-12-18T05:09:05.947Z,5.38
2018-12-18T05:09:46.505Z,5.28
2018-12-18T05:10:27.091Z,5.38
2018-12-18T05:11:07.647Z,5.35
2018-12-18T05:11:48.196Z,5.32
2018-12-18T05:12:28.762Z,5.3
2018-12-18T05:13:09.318Z,5.3
2018-12-18T05:13:49.871Z,5.3
2018-12-18T05:14:30.441Z,5.32
2018-12-18T05:15:11.045Z,5.3
2018-12-18T05:15:51.581Z,5.3
2018-12-18T05:16:32.134Z,5.32
2018-12-18T05:17:12.694Z,5.33
2018-12-18T05:17:53.260Z,5.3
2018-12-18T05:18:33.815Z,5.3
2018-12-18T05:19:14.375Z,5.28
2018-12-18T05:19:54.955Z,5.29
2018-12-18T05:20:35.504Z,5.29
2018-12-18T05:21:16.105Z,5.33
2018-12-18T05:21:56.967Z,5.33
2018-12-18T05:22:37.618Z,5.3
2018-12-18T05:23:18.176Z,5.33
2018-12-18T05:23:58.733Z,5.33
2018-12-18T05:24:39.279Z,5.32
2018-12-18T05:25:19.906Z,5.35
2018-12-18T05:26:00.463Z,5.36
2018-12-18T05:26:41.046Z,5.35
2018-12-18T05:27:21.622Z,5.38
2018-12-18T05:28:02.180Z,5.36
2018-12-18T05:28:42.740Z,5.32
2018-12-18T05:29:23.293Z,5.35
2018-12-18T05:30:03.861Z,5.44
2018-12-18T05:30:44.404Z,5.41
2018-12-18T05:31:24.990Z,5.44
2018-12-18T05:32:05.542Z,5.43
2018-12-18T05:32:46.099Z,5.38
2018-12-18T05:33:26.668Z,5.44
2018-12-18T05:34:07.250Z,5.38
2018-12-18T05:34:47.840Z,5.35
2018-12-18T05:35:28.406Z,5.5
2018-12-18T05:36:08.954Z,5.47
2018-12-18T05:36:49.557Z,5.36
2018-12-18T05:37:30.145Z,5.41
2018-12-18T05:38:10.739Z,5.43
2018-12-18T05:38:51.709Z,5.53
2018-12-18T05:39:32.681Z,5.38
2018-12-18T05:40:14.255Z,5.43
2018-12-18T05:40:54.810Z,5.44
2018-12-18T05:41:35.599Z,5.39
2018-12-18T05:42:16.271Z,5.5
2018-12-18T05:42:56.826Z,5.47
2018-12-18T05:43:37.396Z,5.39
2018-12-18T05:44:17.952Z,5.44
2018-12-18T05:44:58.502Z,5.36
2018-12-18T05:45:39.079Z,5.46
2018-12-18T05:46:19.640Z,5.41
2018-12-18T05:47:00.240Z,5.53
2018-12-18T05:47:40.869Z,5.44
2018-12-18T05:48:21.677Z,5.43
2018-12-18T05:49:02.586Z,5.44
2018-12-18T05:49:43.168Z,5.47
2018-12-18T05:50:25.228Z,5.48
2018-12-18T05:51:05.960Z,5.46
2018-12-18T05:51:46.684Z,5.51
2018-12-18T05:52:27.242Z,5.44
2018-12-18T05:53:08.099Z,5.46
2018-12-18T05:53:48.673Z,5.48
2018-12-18T05:54:29.236Z,5.53
2018-12-18T05:55:09.799Z,5.48
2018-12-18T05:55:50.370Z,5.53
2018-12-18T05:56:30.935Z,5.44
2018-12-18T05:57:11.504Z,5.51
2018-12-18T05:57:52.057Z,5.53
2018-12-18T05:58:32.768Z,5.54
2018-12-18T05:59:13.487Z,5.51
2018-12-18T05:59:54.146Z,5.54
2018-12-18T06:00:34.817Z,5.48
2018-12-18T06:01:15.375Z,5.54
2018-12-18T06:01:55.925Z,5.56
2018-12-18T06:02:36.491Z,5.5
2018-12-18T06:03:17.058Z,5.5
2018-12-18T06:03:57.614Z,5.5
2018-12-18T06:04:38.192Z,5.54
2018-12-18T06:05:18.808Z,5.64
2018-12-18T06:05:59.384Z,5.48
2018-12-18T06:06:39.981Z,5.48
2018-12-18T06:07:20.533Z,5.5
2018-12-18T06:08:01.124Z,5.48
2018-12-18T06:08:41.703Z,5.64
2018-12-18T06:09:22.274Z,5.5
2018-12-18T06:10:02.834Z,5.54
2018-12-18T06:10:43.397Z,5.47
2018-12-18T06:11:23.974Z,5.53
2018-12-18T06:12:04.588Z,5.56
2018-12-18T06:12:46.052Z,5.51
2018-12-18T06:13:25.724Z,5.54
2018-12-18T06:14:06.315Z,5.51
2018-12-18T06:14:46.889Z,5.54
2018-12-18T06:15:27.453Z,5.53
2018-12-18T06:16:08.007Z,5.53
2018-12-18T06:16:48.576Z,5.54
2018-12-18T06:17:29.170Z,5.46
2018-12-18T06:18:09.731Z,5.53
2018-12-18T06:18:50.281Z,5.53
2018-12-18T06:19:30.886Z,5.46
2018-12-18T06:20:11.552Z,5.53
2018-12-18T06:20:52.166Z,5.39
2018-12-18T06:21:32.741Z,5.46
2018-12-18T06:22:13.352Z,5.44
2018-12-18T06:22:53.934Z,5.47
2018-12-18T06:23:34.514Z,5.47
2018-12-18T06:24:15.135Z,5.46
2018-12-18T06:24:55.687Z,5.51
2018-12-18T06:25:36.261Z,5.39
2018-12-18T06:26:16.811Z,5.39
2018-12-18T06:26:57.380Z,5.38
2018-12-18T06:27:37.930Z,5.39
2018-12-18T06:28:18.510Z,5.46
2018-12-18T06:28:59.142Z,5.5
2018-12-18T06:29:39.703Z,5.5
2018-12-18T06:30:20.278Z,5.43
2018-12-18T06:31:00.848Z,5.41
2018-12-18T06:31:41.432Z,5.39
2018-12-18T06:32:22.012Z,5.39
2018-12-18T06:33:02.650Z,5.35
2018-12-18T06:33:43.233Z,5.47
2018-12-18T06:34:23.860Z,5.47
2018-12-18T06:35:10.154Z,5.38
2018-12-18T06:35:45.300Z,5.36
2018-12-18T06:36:25.890Z,5.36
2018-12-18T06:37:06.480Z,5.36
2018-12-18T06:37:47.039Z,5.32
2018-12-18T06:38:27.595Z,5.36
2018-12-18T06:39:08.159Z,5.43
2018-12-18T06:39:48.990Z,5.44
2018-12-18T06:40:29.616Z,5.38
2018-12-18T06:41:10.176Z,5.32
2018-12-18T06:41:51.667Z,5.41
2018-12-18T06:42:32.227Z,5.39
2018-12-18T06:43:12.804Z,5.44
2018-12-18T06:43:53.392Z,5.48
2018-12-18T06:44:33.977Z,5.46
2018-12-18T06:45:14.578Z,5.41
2018-12-18T06:45:55.164Z,5.44
2018-12-18T06:46:35.739Z,5.39
2018-12-18T06:47:16.307Z,5.38
2018-12-18T06:47:56.902Z,5.46
2018-12-18T06:48:37.500Z,5.41
2018-12-18T06:49:18.087Z,5.43
2018-12-18T06:49:58.651Z,5.43
2018-12-18T06:50:39.239Z,5.43
2018-12-18T06:51:19.801Z,5.43
2018-12-18T06:52:00.352Z,5.43
2018-12-18T06:52:40.919Z,5.38
2018-12-18T06:53:21.508Z,5.47
2018-12-18T06:54:02.073Z,5.39
2018-12-18T06:54:42.645Z,5.39
2018-12-18T06:55:23.212Z,5.39
2018-12-18T06:56:03.790Z,5.39
2018-12-18T06:56:44.466Z,5.41
2018-12-18T06:57:25.128Z,5.43
2018-12-18T06:58:05.702Z,5.41
2018-12-18T06:58:46.289Z,5.48
2018-12-18T06:59:26.858Z,5.43
2018-12-18T07:00:07.452Z,5.44
2018-12-18T07:00:48.019Z,5.5
2018-12-18T07:01:28.615Z,5.54
2018-12-18T07:02:09.182Z,5.57
2018-12-18T07:02:49.796Z,5.56
2018-12-18T07:03:30.302Z,5.5
2018-12-18T07:04:10.908Z,5.56
2018-12-18T07:04:51.511Z,5.5
2018-12-18T07:05:32.052Z,5.57
2018-12-18T07:06:12.616Z,5.53
2018-12-18T07:06:53.215Z,5.54
2018-12-18T07:07:34.103Z,5.65
2018-12-18T07:08:14.739Z,5.64
2018-12-18T07:08:55.408Z,5.64
2018-12-18T07:09:36.034Z,5.62
2018-12-18T07:10:16.575Z,5.51
2018-12-18T07:10:57.136Z,5.62
2018-12-18T07:11:37.719Z,5.65
2018-12-18T07:12:18.300Z,5.61
2018-12-18T07:12:58.889Z,5.66
2018-12-18T07:13:39.475Z,5.68
2018-12-18T07:14:20.039Z,5.68
2018-12-18T07:15:00.592Z,5.57
2018-12-18T07:15:41.206Z,5.62
2018-12-18T07:16:21.808Z,5.5
2018-12-18T07:17:02.374Z,5.5
2018-12-18T07:17:42.949Z,5.62
2018-12-18T07:18:23.581Z,5.61
2018-12-18T07:19:04.162Z,5.48
2018-12-18T07:19:44.715Z,5.62
2018-12-18T07:20:25.287Z,5.66
2018-12-18T07:21:05.826Z,5.59
2018-12-18T07:21:46.419Z,5.68
2018-12-18T07:22:26.983Z,5.64
2018-12-18T07:23:07.561Z,5.62
2018-12-18T07:23:48.124Z,5.64
2018-12-18T07:24:28.692Z,5.69
2018-12-18T07:25:09.289Z,5.68
2018-12-18T07:25:49.878Z,5.64
2018-12-18T07:26:30.461Z,5.64
2018-12-18T07:27:11.058Z,5.72
2018-12-18T07:27:51.638Z,5.57
2018-12-18T07:28:32.217Z,5.71
2018-12-18T07:29:12.995Z,5.64
2018-12-18T07:29:53.597Z,5.66
2018-12-18T07:30:34.152Z,5.73
2018-12-18T07:31:14.773Z,5.71
2018-12-18T07:31:55.335Z,5.71
2018-12-18T07:32:35.884Z,5.71
2018-12-18T07:33:16.459Z,5.66
2018-12-18T07:33:57.011Z,5.64
2018-12-18T07:34:37.559Z,5.66
2018-12-18T07:35:23.171Z,5.62
2018-12-18T07:35:59.032Z,5.68
2018-12-18T07:36:39.654Z,5.62
2018-12-18T07:37:20.242Z,5.71
2018-12-18T07:38:00.984Z,5.66
2018-12-18T07:38:41.421Z,5.66
2018-12-18T07:39:22.031Z,5.61
2018-12-18T07:40:02.580Z,5.64
2018-12-18T07:40:43.105Z,5.68
2018-12-18T07:41:23.654Z,5.66
2018-12-18T07:42:04.216Z,5.68
2018-12-18T07:42:44.779Z,5.64
2018-12-18T07:43:25.348Z,5.5
2018-12-18T07:44:05.921Z,5.5
2018-12-18T07:44:46.474Z,5.47
2018-12-18T07:45:27.030Z,5.51
2018-12-18T07:46:07.646Z,5.53
2018-12-18T07:46:48.226Z,5.51
2018-12-18T07:47:28.920Z,5.43
2018-12-18T07:48:09.555Z,5.54
2018-12-18T07:48:50.200Z,5.53
2018-12-18T07:49:30.783Z,5.56
2018-12-18T07:50:11.394Z,5.56
2018-12-18T07:50:52.016Z,5.57
2018-12-18T07:51:32.614Z,5.59
2018-12-18T07:52:13.623Z,5.51
2018-12-18T07:52:54.273Z,5.59
2018-12-18T07:53:35.429Z,5.47
2018-12-18T07:54:15.467Z,5.5
2018-12-18T07:54:56.048Z,5.48
2018-12-18T07:55:36.623Z,5.53
2018-12-18T07:56:17.200Z,5.54
2018-12-18T07:56:57.771Z,5.51
2018-12-18T07:57:38.334Z,5.48
2018-12-18T07:58:18.919Z,5.61
2018-12-18T07:58:59.530Z,5.53
2018-12-18T07:59:40.101Z,5.51
2018-12-18T08:00:20.655Z,5.5
2018-12-18T08:01:01.246Z,5.56
2018-12-18T08:01:42.119Z,5.54
2018-12-18T08:02:22.681Z,5.54
2018-12-18T08:03:03.251Z,5.56
2018-12-18T08:03:43.815Z,5.53
2018-12-18T08:04:24.405Z,5.54
2018-12-18T08:05:04.954Z,5.54
2018-12-18T08:05:45.518Z,5.48
2018-12-18T08:06:26.099Z,5.5
2018-12-18T08:07:06.685Z,5.5
2018-12-18T08:07:47.242Z,5.5
2018-12-18T08:08:27.845Z,5.51
2018-12-18T08:09:08.364Z,5.48
2018-12-18T08:09:48.914Z,5.46
2018-12-18T08:10:29.528Z,5.5
2018-12-18T08:11:10.065Z,5.54
2018-12-18T08:11:50.616Z,5.51
2018-12-18T08:12:31.169Z,5.5
2018-12-18T08:13:11.739Z,5.47
2018-12-18T08:13:52.346Z,5.48
2018-12-18T08:14:32.929Z,5.57
2018-12-18T08:15:13.540Z,5.53
2018-12-18T08:15:54.223Z,5.48
2018-12-18T08:16:34.821Z,5.5
2018-12-18T08:17:15.363Z,5.61
2018-12-18T08:17:55.928Z,5.66
2018-12-18T08:18:36.475Z,5.59
2018-12-18T08:19:17.061Z,5.68
2018-12-18T08:19:57.644Z,5.57
2018-12-18T08:20:38.217Z,5.62
2018-12-18T08:21:18.804Z,5.64
2018-12-18T08:21:59.363Z,5.64
2018-12-18T08:22:39.934Z,5.66
2018-12-18T08:23:20.502Z,5.68
2018-12-18T08:24:01.071Z,5.62
2018-12-18T08:24:41.656Z,5.64
2018-12-18T08:25:22.301Z,5.64
2018-12-18T08:26:02.838Z,5.61
2018-12-18T08:26:43.397Z,5.66
2018-12-18T08:27:23.945Z,5.71
2018-12-18T08:28:04.531Z,5.68
2018-12-18T08:28:45.178Z,5.64
2018-12-18T08:29:25.765Z,5.66
2018-12-18T08:30:06.366Z,5.75
2018-12-18T08:30:46.925Z,5.72
2018-12-18T08:31:27.530Z,5.75
2018-12-18T08:32:09.529Z,5.73
2018-12-18T08:32:48.682Z,5.87
2018-12-18T08:33:29.255Z,5.8
2018-12-18T08:34:09.804Z,5.8
2018-12-18T08:34:50.389Z,5.83
2018-12-18T08:35:36.365Z,5.75
2018-12-18T08:36:11.703Z,5.89
2018-12-18T08:36:52.277Z,5.76
2018-12-18T08:37:32.866Z,5.89
2018-12-18T08:38:13.541Z,5.83
2018-12-18T08:38:54.095Z,5.84
2018-12-18T08:39:34.778Z,5.86
2018-12-18T08:40:15.353Z,5.86
2018-12-18T08:40:55.903Z,5.79
2018-12-18T08:41:36.475Z,5.86
2018-12-18T08:42:17.661Z,5.82
2018-12-18T08:42:58.294Z,5.86
2018-12-18T08:43:38.886Z,5.86
2018-12-18T08:44:19.482Z,5.86
2018-12-18T08:45:00.092Z,5.86
2018-12-18T08:45:40.718Z,5.82
2018-12-18T08:46:21.279Z,5.86
2018-12-18T08:47:02.014Z,5.91
2018-12-18T08:47:42.589Z,5.93
2018-12-18T08:48:23.162Z,5.94
2018-12-18T08:49:03.755Z,5.9
2018-12-18T08:49:44.328Z,5.93
2018-12-18T08:50:24.881Z,5.9
2018-12-18T08:51:05.419Z,5.98
2018-12-18T08:51:45.990Z,5.94
2018-12-18T08:52:26.554Z,5.89
2018-12-18T08:53:07.125Z,5.93
2018-12-18T08:53:47.688Z,5.91
2018-12-18T08:54:28.234Z,5.94
2018-12-18T08:55:08.792Z,5.93
2018-12-18T08:55:49.348Z,5.89
2018-12-18T08:56:29.901Z,5.82
2018-12-18T08:57:10.467Z,5.9
2018-12-18T08:57:51.049Z,5.89
2018-12-18T08:58:31.704Z,5.97
2018-12-18T08:59:12.240Z,5.91
2018-12-18T08:59:52.812Z,5.91
2018-12-18T09:00:33.406Z,5.97
2018-12-18T09:01:13.972Z,5.93
2018-12-18T09:01:54.574Z,5.93
2018-12-18T09:02:35.102Z,5.93